sensor_id;sensor_type;location;lat;lon;timestamp;P1;durP1;ratioP1;P2;durP2;ratioP2
6519;SDS011;3293;51.690;5.982;2023-08-06T00:03:58;9.70;;;6.57;;
6519;SDS011;3293;51.690;5.982;2023-08-06T00:08:59;9.03;;;5.93;;
6519;SDS011;3293;51.690;5.982;2023-08-06T00:13:59;6.50;;;5.67;;
6519;SDS011;3293;51.690;5.982;2023-08-06T00:18:59;8.67;;;5.83;;
6519;SDS011;3293;51.690;5.982;2023-08-06T00:23:59;7.33;;;6.03;;
6519;SDS011;3293;51.690;5.982;2023-08-06T00:28:59;6.60;;;5.93;;
6519;SDS011;3293;51.690;5.982;2023-08-06T00:33:59;8.57;;;6.50;;
6519;SDS011;3293;51.690;5.982;2023-08-06T00:38:59;7.83;;;6.83;;
6519;SDS011;3293;51.690;5.982;2023-08-06T00:43:59;8.83;;;7.23;;
6519;SDS011;3293;51.690;5.982;2023-08-06T00:48:59;9.83;;;7.10;;
6519;SDS011;3293;51.690;5.982;2023-08-06T00:53:59;9.77;;;7.43;;
6519;SDS011;3293;51.690;5.982;2023-08-06T00:59:01;8.50;;;6.67;;
6519;SDS011;3293;51.690;5.982;2023-08-06T01:04:05;8.40;;;7.23;;
6519;SDS011;3293;51.690;5.982;2023-08-06T01:09:11;12.97;;;8.00;;
6519;SDS011;3293;51.690;5.982;2023-08-06T01:14:28;8.33;;;7.47;;
6519;SDS011;3293;51.690;5.982;2023-08-06T01:19:35;8.90;;;7.30;;
6519;SDS011;3293;51.690;5.982;2023-08-06T01:24:36;7.93;;;6.40;;
6519;SDS011;3293;51.690;5.982;2023-08-06T01:29:52;7.53;;;6.77;;
6519;SDS011;3293;51.690;5.982;2023-08-06T01:35:05;9.90;;;6.73;;
6519;SDS011;3293;51.690;5.982;2023-08-06T01:40:10;8.83;;;7.00;;
6519;SDS011;3293;51.690;5.982;2023-08-06T01:45:11;7.03;;;6.33;;
6519;SDS011;3293;51.690;5.982;2023-08-06T01:50:11;8.13;;;6.50;;
6519;SDS011;3293;51.690;5.982;2023-08-06T01:55:11;8.40;;;6.83;;
6519;SDS011;3293;51.690;5.982;2023-08-06T02:00:11;6.97;;;6.23;;
6519;SDS011;3293;51.690;5.982;2023-08-06T02:05:11;8.67;;;6.83;;
6519;SDS011;3293;51.690;5.982;2023-08-06T02:10:11;8.03;;;6.73;;
6519;SDS011;3293;51.690;5.982;2023-08-06T02:15:12;9.10;;;6.70;;
6519;SDS011;3293;51.690;5.982;2023-08-06T02:20:12;8.77;;;6.47;;
6519;SDS011;3293;51.690;5.982;2023-08-06T02:25:12;7.73;;;6.33;;
6519;SDS011;3293;51.690;5.982;2023-08-06T02:30:12;10.00;;;6.87;;
6519;SDS011;3293;51.690;5.982;2023-08-06T02:35:12;7.03;;;6.33;;
6519;SDS011;3293;51.690;5.982;2023-08-06T02:40:12;8.23;;;6.03;;
6519;SDS011;3293;51.690;5.982;2023-08-06T02:45:12;7.93;;;6.60;;
6519;SDS011;3293;51.690;5.982;2023-08-06T02:50:12;11.17;;;7.33;;
6519;SDS011;3293;51.690;5.982;2023-08-06T02:55:12;10.23;;;6.97;;
6519;SDS011;3293;51.690;5.982;2023-08-06T03:00:13;8.40;;;7.17;;
6519;SDS011;3293;51.690;5.982;2023-08-06T03:05:13;10.20;;;6.70;;
6519;SDS011;3293;51.690;5.982;2023-08-06T03:10:13;10.43;;;7.37;;
6519;SDS011;3293;51.690;5.982;2023-08-06T03:15:13;9.77;;;7.50;;
6519;SDS011;3293;51.690;5.982;2023-08-06T03:20:13;11.53;;;7.73;;
6519;SDS011;3293;51.690;5.982;2023-08-06T03:25:13;14.10;;;8.23;;
6519;SDS011;3293;51.690;5.982;2023-08-06T03:30:13;10.47;;;8.00;;
6519;SDS011;3293;51.690;5.982;2023-08-06T03:35:13;10.73;;;7.73;;
6519;SDS011;3293;51.690;5.982;2023-08-06T03:40:13;12.10;;;8.40;;
6519;SDS011;3293;51.690;5.982;2023-08-06T03:45:13;13.57;;;9.53;;
6519;SDS011;3293;51.690;5.982;2023-08-06T03:50:13;11.33;;;9.17;;
6519;SDS011;3293;51.690;5.982;2023-08-06T03:55:13;18.53;;;10.77;;
6519;SDS011;3293;51.690;5.982;2023-08-06T04:00:13;13.57;;;9.23;;
6519;SDS011;3293;51.690;5.982;2023-08-06T04:05:13;12.60;;;10.10;;
6519;SDS011;3293;51.690;5.982;2023-08-06T04:10:13;16.70;;;10.97;;
6519;SDS011;3293;51.690;5.982;2023-08-06T04:15:13;14.80;;;10.33;;
6519;SDS011;3293;51.690;5.982;2023-08-06T04:20:13;20.43;;;12.40;;
6519;SDS011;3293;51.690;5.982;2023-08-06T04:25:13;20.70;;;12.40;;
6519;SDS011;3293;51.690;5.982;2023-08-06T04:30:13;22.37;;;14.13;;
6519;SDS011;3293;51.690;5.982;2023-08-06T04:35:13;22.07;;;13.43;;
6519;SDS011;3293;51.690;5.982;2023-08-06T04:40:13;24.63;;;14.93;;
6519;SDS011;3293;51.690;5.982;2023-08-06T04:45:13;20.67;;;15.27;;
6519;SDS011;3293;51.690;5.982;2023-08-06T04:50:13;23.87;;;15.90;;
6519;SDS011;3293;51.690;5.982;2023-08-06T04:55:14;18.37;;;13.80;;
6519;SDS011;3293;51.690;5.982;2023-08-06T05:00:14;19.77;;;14.90;;
6519;SDS011;3293;51.690;5.982;2023-08-06T05:05:14;24.13;;;16.33;;
6519;SDS011;3293;51.690;5.982;2023-08-06T05:10:14;19.43;;;15.03;;
6519;SDS011;3293;51.690;5.982;2023-08-06T05:15:14;18.23;;;13.70;;
6519;SDS011;3293;51.690;5.982;2023-08-06T05:20:14;17.13;;;13.30;;
6519;SDS011;3293;51.690;5.982;2023-08-06T05:25:14;15.33;;;13.10;;
6519;SDS011;3293;51.690;5.982;2023-08-06T05:30:14;12.83;;;11.57;;
6519;SDS011;3293;51.690;5.982;2023-08-06T05:35:14;13.60;;;11.17;;
6519;SDS011;3293;51.690;5.982;2023-08-06T05:40:14;19.13;;;11.70;;
6519;SDS011;3293;51.690;5.982;2023-08-06T05:45:14;12.13;;;10.88;;
6519;SDS011;3293;51.690;5.982;2023-08-06T05:50:14;9.32;;;7.40;;
6519;SDS011;3293;51.690;5.982;2023-08-06T05:55:14;8.63;;;7.82;;
6519;SDS011;3293;51.690;5.982;2023-08-06T06:00:14;8.60;;;7.10;;
6519;SDS011;3293;51.690;5.982;2023-08-06T06:05:14;10.15;;;6.88;;
6519;SDS011;3293;51.690;5.982;2023-08-06T06:10:15;6.80;;;6.07;;
6519;SDS011;3293;51.690;5.982;2023-08-06T06:15:15;7.40;;;5.72;;
6519;SDS011;3293;51.690;5.982;2023-08-06T06:20:15;5.65;;;4.78;;
6519;SDS011;3293;51.690;5.982;2023-08-06T06:25:15;6.55;;;5.50;;
6519;SDS011;3293;51.690;5.982;2023-08-06T06:30:15;6.47;;;5.30;;
6519;SDS011;3293;51.690;5.982;2023-08-06T06:35:15;8.38;;;5.60;;
6519;SDS011;3293;51.690;5.982;2023-08-06T06:40:15;6.28;;;5.20;;
6519;SDS011;3293;51.690;5.982;2023-08-06T06:45:15;6.78;;;5.32;;
6519;SDS011;3293;51.690;5.982;2023-08-06T06:50:15;7.28;;;6.50;;
6519;SDS011;3293;51.690;5.982;2023-08-06T06:55:15;8.20;;;7.07;;
6519;SDS011;3293;51.690;5.982;2023-08-06T07:00:15;7.85;;;6.22;;
6519;SDS011;3293;51.690;5.982;2023-08-06T07:05:15;7.25;;;5.78;;
6519;SDS011;3293;51.690;5.982;2023-08-06T07:10:15;10.10;;;6.57;;
6519;SDS011;3293;51.690;5.982;2023-08-06T07:15:15;9.55;;;6.28;;
6519;SDS011;3293;51.690;5.982;2023-08-06T07:20:17;8.32;;;6.00;;
6519;SDS011;3293;51.690;5.982;2023-08-06T07:25:17;7.30;;;6.18;;
6519;SDS011;3293;51.690;5.982;2023-08-06T07:30:17;8.15;;;6.68;;
6519;SDS011;3293;51.690;5.982;2023-08-06T07:35:17;9.60;;;5.68;;
6519;SDS011;3293;51.690;5.982;2023-08-06T07:40:17;6.72;;;5.95;;
6519;SDS011;3293;51.690;5.982;2023-08-06T07:45:18;6.18;;;5.57;;
6519;SDS011;3293;51.690;5.982;2023-08-06T07:50:18;8.32;;;6.35;;
6519;SDS011;3293;51.690;5.982;2023-08-06T07:55:19;9.70;;;6.85;;
6519;SDS011;3293;51.690;5.982;2023-08-06T08:00:18;8.32;;;7.20;;
6519;SDS011;3293;51.690;5.982;2023-08-06T08:05:19;8.27;;;7.47;;
6519;SDS011;3293;51.690;5.982;2023-08-06T08:10:19;9.80;;;8.70;;
6519;SDS011;3293;51.690;5.982;2023-08-06T08:15:19;11.55;;;10.43;;
6519;SDS011;3293;51.690;5.982;2023-08-06T08:20:20;14.95;;;12.10;;
6519;SDS011;3293;51.690;5.982;2023-08-06T08:25:20;16.02;;;12.35;;
6519;SDS011;3293;51.690;5.982;2023-08-06T08:30:21;12.02;;;10.80;;
6519;SDS011;3293;51.690;5.982;2023-08-06T08:35:21;10.07;;;9.07;;
6519;SDS011;3293;51.690;5.982;2023-08-06T08:40:22;9.45;;;8.05;;
6519;SDS011;3293;51.690;5.982;2023-08-06T08:45:28;7.47;;;6.70;;
6519;SDS011;3293;51.690;5.982;2023-08-06T08:50:29;7.63;;;7.03;;
6519;SDS011;3293;51.690;5.982;2023-08-06T08:55:29;8.52;;;7.22;;
6519;SDS011;3293;51.690;5.982;2023-08-06T09:00:29;8.10;;;7.40;;
6519;SDS011;3293;51.690;5.982;2023-08-06T09:05:29;7.13;;;6.53;;
6519;SDS011;3293;51.690;5.982;2023-08-06T09:10:30;8.00;;;7.20;;
6519;SDS011;3293;51.690;5.982;2023-08-06T09:15:30;8.55;;;7.75;;
6519;SDS011;3293;51.690;5.982;2023-08-06T09:20:31;9.07;;;7.25;;
6519;SDS011;3293;51.690;5.982;2023-08-06T09:25:34;2.63;;;2.43;;
6519;SDS011;3293;51.690;5.982;2023-08-06T09:30:40;2.10;;;2.00;;
6519;SDS011;3293;51.690;5.982;2023-08-06T09:35:39;2.63;;;2.43;;
6519;SDS011;3293;51.690;5.982;2023-08-06T09:40:40;4.03;;;2.73;;
6519;SDS011;3293;51.690;5.982;2023-08-06T09:45:40;3.80;;;3.40;;
6519;SDS011;3293;51.690;5.982;2023-08-06T09:50:40;3.70;;;3.33;;
6519;SDS011;3293;51.690;5.982;2023-08-06T09:55:40;4.13;;;3.23;;
6519;SDS011;3293;51.690;5.982;2023-08-06T10:00:40;3.70;;;3.40;;
6519;SDS011;3293;51.690;5.982;2023-08-06T10:05:41;3.57;;;3.20;;
6519;SDS011;3293;51.690;5.982;2023-08-06T10:10:42;4.07;;;3.73;;
6519;SDS011;3293;51.690;5.982;2023-08-06T10:15:42;4.93;;;3.67;;
6519;SDS011;3293;51.690;5.982;2023-08-06T10:20:43;5.03;;;4.17;;
6519;SDS011;3293;51.690;5.982;2023-08-06T10:25:43;5.10;;;4.00;;
6519;SDS011;3293;51.690;5.982;2023-08-06T10:30:46;4.07;;;3.67;;
6519;SDS011;3293;51.690;5.982;2023-08-06T10:35:47;4.70;;;4.17;;
6519;SDS011;3293;51.690;5.982;2023-08-06T10:40:50;6.57;;;4.80;;
6519;SDS011;3293;51.690;5.982;2023-08-06T10:45:52;6.93;;;4.87;;
6519;SDS011;3293;51.690;5.982;2023-08-06T10:50:52;6.03;;;5.43;;
6519;SDS011;3293;51.690;5.982;2023-08-06T10:55:52;6.50;;;5.03;;
6519;SDS011;3293;51.690;5.982;2023-08-06T11:00:52;6.83;;;5.20;;
6519;SDS011;3293;51.690;5.982;2023-08-06T11:05:52;6.40;;;5.03;;
6519;SDS011;3293;51.690;5.982;2023-08-06T11:10:52;5.33;;;4.83;;
6519;SDS011;3293;51.690;5.982;2023-08-06T11:15:53;5.17;;;4.67;;
6519;SDS011;3293;51.690;5.982;2023-08-06T11:20:53;5.43;;;4.93;;
6519;SDS011;3293;51.690;5.982;2023-08-06T11:25:53;6.40;;;5.43;;
6519;SDS011;3293;51.690;5.982;2023-08-06T11:30:53;6.87;;;5.50;;
6519;SDS011;3293;51.690;5.982;2023-08-06T11:35:57;7.73;;;5.67;;
6519;SDS011;3293;51.690;5.982;2023-08-06T11:40:58;8.07;;;6.03;;
6519;SDS011;3293;51.690;5.982;2023-08-06T11:45:58;9.70;;;5.77;;
6519;SDS011;3293;51.690;5.982;2023-08-06T11:50:59;5.97;;;5.33;;
6519;SDS011;3293;51.690;5.982;2023-08-06T11:55:59;7.67;;;5.63;;
6519;SDS011;3293;51.690;5.982;2023-08-06T12:01:00;7.57;;;5.03;;
6519;SDS011;3293;51.690;5.982;2023-08-06T12:06:00;7.73;;;4.60;;
6519;SDS011;3293;51.690;5.982;2023-08-06T12:11:00;7.13;;;4.47;;
6519;SDS011;3293;51.690;5.982;2023-08-06T12:16:00;6.77;;;4.70;;
6519;SDS011;3293;51.690;5.982;2023-08-06T12:21:00;7.70;;;5.50;;
6519;SDS011;3293;51.690;5.982;2023-08-06T12:26:00;4.60;;;4.17;;
6519;SDS011;3293;51.690;5.982;2023-08-06T12:31:00;4.83;;;4.30;;
6519;SDS011;3293;51.690;5.982;2023-08-06T12:36:01;6.93;;;4.80;;
6519;SDS011;3293;51.690;5.982;2023-08-06T12:41:01;6.40;;;3.97;;
6519;SDS011;3293;51.690;5.982;2023-08-06T12:46:01;7.33;;;4.73;;
6519;SDS011;3293;51.690;5.982;2023-08-06T12:51:02;5.43;;;4.03;;
6519;SDS011;3293;51.690;5.982;2023-08-06T12:56:02;5.73;;;4.17;;
6519;SDS011;3293;51.690;5.982;2023-08-06T13:01:02;5.93;;;4.43;;
6519;SDS011;3293;51.690;5.982;2023-08-06T13:06:02;6.30;;;4.40;;
6519;SDS011;3293;51.690;5.982;2023-08-06T13:11:02;8.30;;;4.50;;
6519;SDS011;3293;51.690;5.982;2023-08-06T13:16:02;7.40;;;4.90;;
6519;SDS011;3293;51.690;5.982;2023-08-06T13:21:02;5.77;;;4.10;;
6519;SDS011;3293;51.690;5.982;2023-08-06T13:26:02;3.90;;;3.50;;
6519;SDS011;3293;51.690;5.982;2023-08-06T13:31:02;5.47;;;3.30;;
6519;SDS011;3293;51.690;5.982;2023-08-06T13:36:02;4.20;;;3.47;;
6519;SDS011;3293;51.690;5.982;2023-08-06T13:41:02;5.53;;;3.17;;
6519;SDS011;3293;51.690;5.982;2023-08-06T13:46:02;5.93;;;3.70;;
6519;SDS011;3293;51.690;5.982;2023-08-06T13:51:02;7.07;;;3.40;;
6519;SDS011;3293;51.690;5.982;2023-08-06T13:56:02;5.07;;;3.33;;
6519;SDS011;3293;51.690;5.982;2023-08-06T14:01:04;6.80;;;3.27;;
6519;SDS011;3293;51.690;5.982;2023-08-06T14:06:04;5.33;;;3.57;;
6519;SDS011;3293;51.690;5.982;2023-08-06T14:11:04;4.57;;;3.53;;
6519;SDS011;3293;51.690;5.982;2023-08-06T14:16:05;5.00;;;3.43;;
6519;SDS011;3293;51.690;5.982;2023-08-06T14:21:05;3.73;;;2.93;;
6519;SDS011;3293;51.690;5.982;2023-08-06T14:26:05;3.87;;;2.40;;
6519;SDS011;3293;51.690;5.982;2023-08-06T14:31:05;5.57;;;2.70;;
6519;SDS011;3293;51.690;5.982;2023-08-06T14:36:06;8.20;;;2.90;;
6519;SDS011;3293;51.690;5.982;2023-08-06T14:41:06;4.80;;;2.60;;
6519;SDS011;3293;51.690;5.982;2023-08-06T14:46:06;4.53;;;3.10;;
6519;SDS011;3293;51.690;5.982;2023-08-06T14:51:05;5.13;;;3.60;;
6519;SDS011;3293;51.690;5.982;2023-08-06T14:56:05;4.57;;;3.30;;
6519;SDS011;3293;51.690;5.982;2023-08-06T15:01:05;5.67;;;3.43;;
6519;SDS011;3293;51.690;5.982;2023-08-06T15:06:05;4.93;;;3.20;;
6519;SDS011;3293;51.690;5.982;2023-08-06T15:11:05;3.63;;;3.00;;
6519;SDS011;3293;51.690;5.982;2023-08-06T15:16:05;3.63;;;3.10;;
6519;SDS011;3293;51.690;5.982;2023-08-06T15:21:05;4.87;;;3.10;;
6519;SDS011;3293;51.690;5.982;2023-08-06T15:26:05;6.13;;;3.37;;
6519;SDS011;3293;51.690;5.982;2023-08-06T15:31:05;5.83;;;3.93;;
6519;SDS011;3293;51.690;5.982;2023-08-06T15:36:07;7.73;;;4.20;;
6519;SDS011;3293;51.690;5.982;2023-08-06T15:41:07;5.97;;;3.87;;
6519;SDS011;3293;51.690;5.982;2023-08-06T15:46:07;9.30;;;3.77;;
6519;SDS011;3293;51.690;5.982;2023-08-06T15:51:07;4.93;;;4.30;;
6519;SDS011;3293;51.690;5.982;2023-08-06T15:56:08;6.53;;;4.20;;
6519;SDS011;3293;51.690;5.982;2023-08-06T16:01:08;5.57;;;4.00;;
6519;SDS011;3293;51.690;5.982;2023-08-06T16:06:08;4.83;;;4.37;;
6519;SDS011;3293;51.690;5.982;2023-08-06T16:11:09;6.50;;;4.60;;
6519;SDS011;3293;51.690;5.982;2023-08-06T16:16:09;7.10;;;4.30;;
6519;SDS011;3293;51.690;5.982;2023-08-06T16:21:09;4.10;;;3.70;;
6519;SDS011;3293;51.690;5.982;2023-08-06T16:26:09;6.10;;;2.70;;
6519;SDS011;3293;51.690;5.982;2023-08-06T16:31:09;8.60;;;2.63;;
6519;SDS011;3293;51.690;5.982;2023-08-06T16:36:10;6.47;;;2.30;;
6519;SDS011;3293;51.690;5.982;2023-08-06T16:41:10;4.07;;;2.30;;
6519;SDS011;3293;51.690;5.982;2023-08-06T16:46:10;4.83;;;2.40;;
6519;SDS011;3293;51.690;5.982;2023-08-06T16:51:10;8.30;;;2.37;;
6519;SDS011;3293;51.690;5.982;2023-08-06T16:56:12;5.83;;;2.60;;
6519;SDS011;3293;51.690;5.982;2023-08-06T17:01:12;6.70;;;2.40;;
6519;SDS011;3293;51.690;5.982;2023-08-06T17:06:14;7.97;;;2.37;;
6519;SDS011;3293;51.690;5.982;2023-08-06T17:11:16;6.80;;;2.60;;
6519;SDS011;3293;51.690;5.982;2023-08-06T17:16:16;9.43;;;2.40;;
6519;SDS011;3293;51.690;5.982;2023-08-06T17:21:16;8.63;;;2.67;;
6519;SDS011;3293;51.690;5.982;2023-08-06T17:26:16;10.43;;;2.80;;
6519;SDS011;3293;51.690;5.982;2023-08-06T17:31:16;12.60;;;2.60;;
6519;SDS011;3293;51.690;5.982;2023-08-06T17:36:16;9.03;;;2.60;;
6519;SDS011;3293;51.690;5.982;2023-08-06T17:41:31;11.07;;;2.70;;
6519;SDS011;3293;51.690;5.982;2023-08-06T17:46:31;7.13;;;2.43;;
6519;SDS011;3293;51.690;5.982;2023-08-06T17:51:32;8.63;;;2.93;;
6519;SDS011;3293;51.690;5.982;2023-08-06T17:56:33;11.17;;;2.43;;
6519;SDS011;3293;51.690;5.982;2023-08-06T18:01:33;13.40;;;2.93;;
6519;SDS011;3293;51.690;5.982;2023-08-06T18:06:33;10.97;;;3.10;;
6519;SDS011;3293;51.690;5.982;2023-08-06T18:11:34;14.67;;;3.20;;
6519;SDS011;3293;51.690;5.982;2023-08-06T18:16:35;13.17;;;3.23;;
6519;SDS011;3293;51.690;5.982;2023-08-06T18:21:35;11.50;;;3.10;;
6519;SDS011;3293;51.690;5.982;2023-08-06T18:26:35;11.30;;;3.00;;
6519;SDS011;3293;51.690;5.982;2023-08-06T18:31:35;10.20;;;3.03;;
6519;SDS011;3293;51.690;5.982;2023-08-06T18:36:39;9.67;;;2.70;;
6519;SDS011;3293;51.690;5.982;2023-08-06T18:41:39;10.13;;;3.20;;
6519;SDS011;3293;51.690;5.982;2023-08-06T18:46:39;7.97;;;3.20;;
6519;SDS011;3293;51.690;5.982;2023-08-06T18:51:39;10.97;;;2.87;;
6519;SDS011;3293;51.690;5.982;2023-08-06T18:56:39;10.57;;;2.67;;
6519;SDS011;3293;51.690;5.982;2023-08-06T19:01:39;12.57;;;2.97;;
6519;SDS011;3293;51.690;5.982;2023-08-06T19:06:40;8.87;;;2.67;;
6519;SDS011;3293;51.690;5.982;2023-08-06T19:11:40;7.30;;;2.93;;
6519;SDS011;3293;51.690;5.982;2023-08-06T19:16:40;8.10;;;3.20;;
6519;SDS011;3293;51.690;5.982;2023-08-06T19:21:44;10.53;;;3.10;;
6519;SDS011;3293;51.690;5.982;2023-08-06T19:26:47;14.67;;;3.70;;
6519;SDS011;3293;51.690;5.982;2023-08-06T19:31:48;7.07;;;2.97;;
6519;SDS011;3293;51.690;5.982;2023-08-06T19:36:49;7.67;;;2.83;;
6519;SDS011;3293;51.690;5.982;2023-08-06T19:41:49;6.37;;;2.13;;
6519;SDS011;3293;51.690;5.982;2023-08-06T19:46:49;12.03;;;2.83;;
6519;SDS011;3293;51.690;5.982;2023-08-06T19:51:50;5.77;;;2.80;;
6519;SDS011;3293;51.690;5.982;2023-08-06T19:56:50;11.90;;;3.73;;
6519;SDS011;3293;51.690;5.982;2023-08-06T20:01:49;8.50;;;2.40;;
6519;SDS011;3293;51.690;5.982;2023-08-06T20:06:52;6.73;;;2.17;;
6519;SDS011;3293;51.690;5.982;2023-08-06T20:11:53;9.63;;;2.70;;
6519;SDS011;3293;51.690;5.982;2023-08-06T20:16:55;7.87;;;2.60;;
6519;SDS011;3293;51.690;5.982;2023-08-06T20:21:55;10.93;;;2.73;;
6519;SDS011;3293;51.690;5.982;2023-08-06T20:26:55;7.67;;;2.37;;
6519;SDS011;3293;51.690;5.982;2023-08-06T20:31:56;10.00;;;2.73;;
6519;SDS011;3293;51.690;5.982;2023-08-06T20:36:56;10.47;;;2.57;;
6519;SDS011;3293;51.690;5.982;2023-08-06T20:41:57;11.27;;;3.23;;
6519;SDS011;3293;51.690;5.982;2023-08-06T20:46:57;8.20;;;2.50;;
6519;SDS011;3293;51.690;5.982;2023-08-06T20:51:58;8.50;;;2.93;;
6519;SDS011;3293;51.690;5.982;2023-08-06T20:57:00;6.97;;;2.97;;
6519;SDS011;3293;51.690;5.982;2023-08-06T21:02:00;13.40;;;3.87;;
6519;SDS011;3293;51.690;5.982;2023-08-06T21:07:01;12.23;;;3.50;;
6519;SDS011;3293;51.690;5.982;2023-08-06T21:12:02;13.83;;;3.43;;
6519;SDS011;3293;51.690;5.982;2023-08-06T21:17:03;9.77;;;3.77;;
6519;SDS011;3293;51.690;5.982;2023-08-06T21:22:04;11.33;;;3.73;;
6519;SDS011;3293;51.690;5.982;2023-08-06T21:27:06;11.63;;;4.00;;
6519;SDS011;3293;51.690;5.982;2023-08-06T21:32:06;8.63;;;3.57;;
6519;SDS011;3293;51.690;5.982;2023-08-06T21:37:07;9.40;;;3.67;;
6519;SDS011;3293;51.690;5.982;2023-08-06T21:42:11;15.00;;;3.97;;
6519;SDS011;3293;51.690;5.982;2023-08-06T21:47:12;11.43;;;4.10;;
6519;SDS011;3293;51.690;5.982;2023-08-06T21:52:13;11.33;;;4.07;;
6519;SDS011;3293;51.690;5.982;2023-08-06T21:57:14;10.03;;;3.97;;
6519;SDS011;3293;51.690;5.982;2023-08-06T22:02:14;9.93;;;3.27;;
6519;SDS011;3293;51.690;5.982;2023-08-06T22:07:15;7.10;;;3.20;;
6519;SDS011;3293;51.690;5.982;2023-08-06T22:12:15;6.87;;;3.00;;
6519;SDS011;3293;51.690;5.982;2023-08-06T22:17:16;7.50;;;3.30;;
6519;SDS011;3293;51.690;5.982;2023-08-06T22:22:16;9.07;;;3.13;;
6519;SDS011;3293;51.690;5.982;2023-08-06T22:27:17;9.47;;;3.33;;
6519;SDS011;3293;51.690;5.982;2023-08-06T22:32:17;9.13;;;3.20;;
6519;SDS011;3293;51.690;5.982;2023-08-06T22:37:18;9.77;;;2.63;;
6519;SDS011;3293;51.690;5.982;2023-08-06T22:42:18;9.73;;;3.63;;
6519;SDS011;3293;51.690;5.982;2023-08-06T22:47:19;7.40;;;2.87;;
6519;SDS011;3293;51.690;5.982;2023-08-06T22:52:20;9.00;;;3.20;;
6519;SDS011;3293;51.690;5.982;2023-08-06T22:57:20;8.70;;;3.20;;
6519;SDS011;3293;51.690;5.982;2023-08-06T23:02:21;11.90;;;3.37;;
6519;SDS011;3293;51.690;5.982;2023-08-06T23:07:21;10.10;;;2.80;;
6519;SDS011;3293;51.690;5.982;2023-08-06T23:12:24;6.17;;;2.80;;
6519;SDS011;3293;51.690;5.982;2023-08-06T23:17:24;10.97;;;2.90;;
6519;SDS011;3293;51.690;5.982;2023-08-06T23:22:24;12.10;;;3.53;;
6519;SDS011;3293;51.690;5.982;2023-08-06T23:27:24;11.50;;;3.40;;
6519;SDS011;3293;51.690;5.982;2023-08-06T23:32:27;14.57;;;3.87;;
6519;SDS011;3293;51.690;5.982;2023-08-06T23:37:27;10.10;;;3.43;;
6519;SDS011;3293;51.690;5.982;2023-08-06T23:42:28;13.77;;;3.97;;
6519;SDS011;3293;51.690;5.982;2023-08-06T23:47:29;10.43;;;3.67;;
6519;SDS011;3293;51.690;5.982;2023-08-06T23:52:30;15.53;;;3.87;;
6519;SDS011;3293;51.690;5.982;2023-08-06T23:57:30;10.87;;;3.53;;
